sensor_id;sensor_type;location;lat;lon;timestamp;P1;durP1;ratioP1;P2;durP2;ratioP2
26435;SDS011;15351;52.408;16.826;2023-02-01T00:00:10;10.60;;;3.30;;
26435;SDS011;15351;52.408;16.826;2023-02-01T00:03:00;9.10;;;3.00;;
26435;SDS011;15351;52.408;16.826;2023-02-01T00:05:34;9.00;;;2.90;;
26435;SDS011;15351;52.408;16.826;2023-02-01T00:08:08;11.00;;;3.10;;
26435;SDS011;15351;52.408;16.826;2023-02-01T00:10:35;10.60;;;3.20;;
26435;SDS011;15351;52.408;16.826;2023-02-01T00:13:04;8.30;;;2.60;;
26435;SDS011;15351;52.408;16.826;2023-02-01T00:15:34;9.00;;;2.80;;
26435;SDS011;15351;52.408;16.826;2023-02-01T00:18:03;11.20;;;2.90;;
26435;SDS011;15351;52.408;16.826;2023-02-01T00:20:30;10.40;;;3.00;;
26435;SDS011;15351;52.408;16.826;2023-02-01T00:23:02;11.20;;;2.90;;
26435;SDS011;15351;52.408;16.826;2023-02-01T00:25:31;9.80;;;2.60;;
26435;SDS011;15351;52.408;16.826;2023-02-01T00:27:58;9.40;;;2.50;;
26435;SDS011;15351;52.408;16.826;2023-02-01T00:30:28;12.80;;;3.40;;
26435;SDS011;15351;52.408;16.826;2023-02-01T00:32:57;12.70;;;3.70;;
26435;SDS011;15351;52.408;16.826;2023-02-01T00:35:26;12.60;;;3.00;;
26435;SDS011;15351;52.408;16.826;2023-02-01T00:38:03;11.10;;;3.10;;
26435;SDS011;15351;52.408;16.826;2023-02-01T00:40:32;12.50;;;3.10;;
26435;SDS011;15351;52.408;16.826;2023-02-01T00:43:24;10.80;;;3.30;;
26435;SDS011;15351;52.408;16.826;2023-02-01T00:46:02;10.50;;;3.00;;
26435;SDS011;15351;52.408;16.826;2023-02-01T00:48:50;10.00;;;2.80;;
26435;SDS011;15351;52.408;16.826;2023-02-01T00:51:51;10.10;;;2.80;;
26435;SDS011;15351;52.408;16.826;2023-02-01T00:57:32;11.40;;;3.40;;
26435;SDS011;15351;52.408;16.826;2023-02-01T01:00:13;9.80;;;3.20;;
26435;SDS011;15351;52.408;16.826;2023-02-01T01:02:44;10.80;;;3.10;;
26435;SDS011;15351;52.408;16.826;2023-02-01T01:05:20;11.80;;;3.10;;
26435;SDS011;15351;52.408;16.826;2023-02-01T01:07:48;10.90;;;2.80;;
26435;SDS011;15351;52.408;16.826;2023-02-01T01:10:23;9.90;;;3.00;;
26435;SDS011;15351;52.408;16.826;2023-02-01T01:12:55;13.80;;;3.50;;
26435;SDS011;15351;52.408;16.826;2023-02-01T01:15:35;12.20;;;3.40;;
26435;SDS011;15351;52.408;16.826;2023-02-01T01:18:14;11.80;;;2.90;;
26435;SDS011;15351;52.408;16.826;2023-02-01T01:20:45;13.20;;;3.20;;
26435;SDS011;15351;52.408;16.826;2023-02-01T01:23:55;10.00;;;2.90;;
26435;SDS011;15351;52.408;16.826;2023-02-01T01:26:26;11.20;;;2.70;;
26435;SDS011;15351;52.408;16.826;2023-02-01T01:29:13;12.90;;;2.90;;
26435;SDS011;15351;52.408;16.826;2023-02-01T01:32:02;9.00;;;2.50;;
26435;SDS011;15351;52.408;16.826;2023-02-01T01:34:51;10.20;;;3.00;;
26435;SDS011;15351;52.408;16.826;2023-02-01T01:37:27;10.40;;;2.80;;
26435;SDS011;15351;52.408;16.826;2023-02-01T01:39:55;8.80;;;2.80;;
26435;SDS011;15351;52.408;16.826;2023-02-01T01:42:24;9.40;;;2.90;;
26435;SDS011;15351;52.408;16.826;2023-02-01T01:45:22;10.90;;;3.10;;
26435;SDS011;15351;52.408;16.826;2023-02-01T01:47:55;9.60;;;2.70;;
26435;SDS011;15351;52.408;16.826;2023-02-01T01:50:31;8.90;;;2.80;;
26435;SDS011;15351;52.408;16.826;2023-02-01T01:53:26;11.00;;;3.20;;
26435;SDS011;15351;52.408;16.826;2023-02-01T01:55:58;11.90;;;2.80;;
26435;SDS011;15351;52.408;16.826;2023-02-01T01:58:28;10.00;;;2.80;;
26435;SDS011;15351;52.408;16.826;2023-02-01T02:00:59;9.60;;;2.60;;
26435;SDS011;15351;52.408;16.826;2023-02-01T02:03:30;10.90;;;2.50;;
26435;SDS011;15351;52.408;16.826;2023-02-01T02:06:06;10.80;;;2.90;;
26435;SDS011;15351;52.408;16.826;2023-02-01T02:08:58;13.50;;;3.10;;
26435;SDS011;15351;52.408;16.826;2023-02-01T02:11:25;12.40;;;2.90;;
26435;SDS011;15351;52.408;16.826;2023-02-01T02:13:53;10.30;;;2.70;;
26435;SDS011;15351;52.408;16.826;2023-02-01T02:19:21;11.00;;;2.80;;
26435;SDS011;15351;52.408;16.826;2023-02-01T02:30:53;12.30;;;2.60;;
26435;SDS011;15351;52.408;16.826;2023-02-01T02:33:39;11.50;;;2.70;;
26435;SDS011;15351;52.408;16.826;2023-02-01T02:42:56;13.90;;;3.30;;
26435;SDS011;15351;52.408;16.826;2023-02-01T02:46:01;14.60;;;3.00;;
26435;SDS011;15351;52.408;16.826;2023-02-01T02:49:01;10.60;;;2.70;;
26435;SDS011;15351;52.408;16.826;2023-02-01T02:52:16;9.80;;;2.70;;
26435;SDS011;15351;52.408;16.826;2023-02-01T02:55:34;15.00;;;3.40;;
26435;SDS011;15351;52.408;16.826;2023-02-01T02:58:18;13.30;;;3.10;;
26435;SDS011;15351;52.408;16.826;2023-02-01T03:01:17;11.40;;;2.70;;
26435;SDS011;15351;52.408;16.826;2023-02-01T03:04:10;12.70;;;2.90;;
26435;SDS011;15351;52.408;16.826;2023-02-01T03:06:55;9.80;;;3.10;;
26435;SDS011;15351;52.408;16.826;2023-02-01T03:09:39;14.00;;;3.40;;
26435;SDS011;15351;52.408;16.826;2023-02-01T03:12:35;14.30;;;3.00;;
26435;SDS011;15351;52.408;16.826;2023-02-01T03:16:06;12.70;;;2.90;;
26435;SDS011;15351;52.408;16.826;2023-02-01T03:24:54;11.90;;;2.90;;
26435;SDS011;15351;52.408;16.826;2023-02-01T03:27:42;11.40;;;2.80;;
26435;SDS011;15351;52.408;16.826;2023-02-01T03:30:36;9.60;;;3.10;;
26435;SDS011;15351;52.408;16.826;2023-02-01T03:33:32;14.00;;;3.60;;
26435;SDS011;15351;52.408;16.826;2023-02-01T03:47:38;15.00;;;3.70;;
26435;SDS011;15351;52.408;16.826;2023-02-01T03:50:16;14.00;;;3.20;;
26435;SDS011;15351;52.408;16.826;2023-02-01T03:52:57;12.10;;;3.00;;
26435;SDS011;15351;52.408;16.826;2023-02-01T03:55:36;11.90;;;2.90;;
26435;SDS011;15351;52.408;16.826;2023-02-01T04:00:36;13.20;;;3.20;;
26435;SDS011;15351;52.408;16.826;2023-02-01T04:03:08;17.80;;;3.70;;
26435;SDS011;15351;52.408;16.826;2023-02-01T04:05:41;12.30;;;2.90;;
26435;SDS011;15351;52.408;16.826;2023-02-01T04:08:34;12.10;;;2.80;;
26435;SDS011;15351;52.408;16.826;2023-02-01T04:11:01;10.90;;;3.20;;
26435;SDS011;15351;52.408;16.826;2023-02-01T04:13:29;14.80;;;3.90;;
26435;SDS011;15351;52.408;16.826;2023-02-01T04:15:59;16.40;;;3.70;;
26435;SDS011;15351;52.408;16.826;2023-02-01T04:18:29;11.60;;;2.90;;
26435;SDS011;15351;52.408;16.826;2023-02-01T04:21:08;11.50;;;3.10;;
26435;SDS011;15351;52.408;16.826;2023-02-01T04:23:36;12.30;;;3.10;;
26435;SDS011;15351;52.408;16.826;2023-02-01T04:26:24;11.40;;;3.00;;
26435;SDS011;15351;52.408;16.826;2023-02-01T04:28:56;13.70;;;3.00;;
26435;SDS011;15351;52.408;16.826;2023-02-01T04:31:24;12.90;;;3.20;;
26435;SDS011;15351;52.408;16.826;2023-02-01T04:33:55;10.90;;;2.70;;
26435;SDS011;15351;52.408;16.826;2023-02-01T04:36:29;8.90;;;2.70;;
26435;SDS011;15351;52.408;16.826;2023-02-01T04:38:56;10.60;;;2.80;;
26435;SDS011;15351;52.408;16.826;2023-02-01T04:41:24;12.70;;;3.30;;
26435;SDS011;15351;52.408;16.826;2023-02-01T04:43:53;14.20;;;3.10;;
26435;SDS011;15351;52.408;16.826;2023-02-01T04:46:20;11.50;;;2.80;;
26435;SDS011;15351;52.408;16.826;2023-02-01T04:48:47;10.90;;;2.70;;
26435;SDS011;15351;52.408;16.826;2023-02-01T04:51:14;10.70;;;3.20;;
26435;SDS011;15351;52.408;16.826;2023-02-01T04:53:42;10.90;;;3.20;;
26435;SDS011;15351;52.408;16.826;2023-02-01T04:56:11;13.10;;;3.20;;
26435;SDS011;15351;52.408;16.826;2023-02-01T04:58:46;11.70;;;2.70;;
26435;SDS011;15351;52.408;16.826;2023-02-01T05:01:25;10.80;;;3.00;;
26435;SDS011;15351;52.408;16.826;2023-02-01T05:03:55;10.90;;;3.00;;
26435;SDS011;15351;52.408;16.826;2023-02-01T05:07:11;11.20;;;3.00;;
26435;SDS011;15351;52.408;16.826;2023-02-01T05:10:03;13.00;;;3.50;;
26435;SDS011;15351;52.408;16.826;2023-02-01T05:12:45;10.60;;;2.90;;
26435;SDS011;15351;52.408;16.826;2023-02-01T05:15:32;9.30;;;2.50;;
26435;SDS011;15351;52.408;16.826;2023-02-01T05:18:18;8.60;;;2.60;;
26435;SDS011;15351;52.408;16.826;2023-02-01T05:21:07;11.80;;;3.30;;
26435;SDS011;15351;52.408;16.826;2023-02-01T05:23:35;12.50;;;3.10;;
26435;SDS011;15351;52.408;16.826;2023-02-01T05:26:23;13.00;;;3.10;;
26435;SDS011;15351;52.408;16.826;2023-02-01T05:28:54;13.60;;;3.10;;
26435;SDS011;15351;52.408;16.826;2023-02-01T05:31:27;8.10;;;2.40;;
26435;SDS011;15351;52.408;16.826;2023-02-01T05:33:55;10.90;;;3.00;;
26435;SDS011;15351;52.408;16.826;2023-02-01T05:36:38;13.00;;;3.50;;
26435;SDS011;15351;52.408;16.826;2023-02-01T05:39:09;13.20;;;3.40;;
26435;SDS011;15351;52.408;16.826;2023-02-01T05:41:37;13.30;;;3.10;;
26435;SDS011;15351;52.408;16.826;2023-02-01T05:44:12;13.10;;;3.30;;
26435;SDS011;15351;52.408;16.826;2023-02-01T05:46:45;11.80;;;3.10;;
26435;SDS011;15351;52.408;16.826;2023-02-01T05:49:21;14.30;;;3.20;;
26435;SDS011;15351;52.408;16.826;2023-02-01T05:51:57;12.70;;;3.70;;
26435;SDS011;15351;52.408;16.826;2023-02-01T05:54:33;11.70;;;3.60;;
26435;SDS011;15351;52.408;16.826;2023-02-01T05:57:09;12.60;;;3.30;;
26435;SDS011;15351;52.408;16.826;2023-02-01T05:59:36;14.30;;;3.50;;
26435;SDS011;15351;52.408;16.826;2023-02-01T06:02:07;13.20;;;3.70;;
26435;SDS011;15351;52.408;16.826;2023-02-01T06:04:43;12.20;;;3.70;;
26435;SDS011;15351;52.408;16.826;2023-02-01T06:07:22;13.00;;;3.80;;
26435;SDS011;15351;52.408;16.826;2023-02-01T06:10:10;13.40;;;3.50;;
26435;SDS011;15351;52.408;16.826;2023-02-01T06:12:43;15.20;;;3.80;;
26435;SDS011;15351;52.408;16.826;2023-02-01T06:15:31;13.80;;;3.70;;
26435;SDS011;15351;52.408;16.826;2023-02-01T06:18:03;13.30;;;4.20;;
26435;SDS011;15351;52.408;16.826;2023-02-01T06:20:54;14.70;;;5.00;;
26435;SDS011;15351;52.408;16.826;2023-02-01T06:23:23;23.00;;;5.80;;
26435;SDS011;15351;52.408;16.826;2023-02-01T06:25:57;22.50;;;5.90;;
26435;SDS011;15351;52.408;16.826;2023-02-01T06:28:28;21.10;;;6.10;;
26435;SDS011;15351;52.408;16.826;2023-02-01T06:31:03;20.50;;;5.90;;
26435;SDS011;15351;52.408;16.826;2023-02-01T06:33:37;17.50;;;5.90;;
26435;SDS011;15351;52.408;16.826;2023-02-01T06:36:34;23.90;;;7.30;;
26435;SDS011;15351;52.408;16.826;2023-02-01T06:39:10;19.90;;;5.90;;
26435;SDS011;15351;52.408;16.826;2023-02-01T06:42:05;16.50;;;4.50;;
26435;SDS011;15351;52.408;16.826;2023-02-01T06:45:02;17.30;;;4.60;;
26435;SDS011;15351;52.408;16.826;2023-02-01T06:47:35;17.20;;;4.10;;
26435;SDS011;15351;52.408;16.826;2023-02-01T06:50:10;17.20;;;4.50;;
26435;SDS011;15351;52.408;16.826;2023-02-01T06:52:39;17.10;;;4.80;;
26435;SDS011;15351;52.408;16.826;2023-02-01T06:55:13;17.70;;;4.80;;
26435;SDS011;15351;52.408;16.826;2023-02-01T06:57:42;14.40;;;4.50;;
26435;SDS011;15351;52.408;16.826;2023-02-01T07:00:44;14.30;;;4.20;;
26435;SDS011;15351;52.408;16.826;2023-02-01T07:03:12;15.40;;;4.50;;
26435;SDS011;15351;52.408;16.826;2023-02-01T07:05:56;14.70;;;5.10;;
26435;SDS011;15351;52.408;16.826;2023-02-01T07:08:42;18.10;;;5.00;;
26435;SDS011;15351;52.408;16.826;2023-02-01T07:11:30;17.60;;;4.90;;
26435;SDS011;15351;52.408;16.826;2023-02-01T07:14:14;18.50;;;4.80;;
26435;SDS011;15351;52.408;16.826;2023-02-01T07:17:11;15.90;;;4.60;;
26435;SDS011;15351;52.408;16.826;2023-02-01T07:20:05;16.50;;;5.00;;
26435;SDS011;15351;52.408;16.826;2023-02-01T07:23:23;16.90;;;4.40;;
26435;SDS011;15351;52.408;16.826;2023-02-01T07:26:17;18.40;;;4.30;;
26435;SDS011;15351;52.408;16.826;2023-02-01T07:28:49;16.90;;;4.70;;
26435;SDS011;15351;52.408;16.826;2023-02-01T07:31:34;15.00;;;4.80;;
26435;SDS011;15351;52.408;16.826;2023-02-01T07:34:03;18.00;;;4.90;;
26435;SDS011;15351;52.408;16.826;2023-02-01T07:36:31;17.30;;;4.60;;
26435;SDS011;15351;52.408;16.826;2023-02-01T07:38:58;16.30;;;4.80;;
26435;SDS011;15351;52.408;16.826;2023-02-01T07:41:31;17.20;;;4.60;;
26435;SDS011;15351;52.408;16.826;2023-02-01T07:44:33;18.80;;;5.10;;
26435;SDS011;15351;52.408;16.826;2023-02-01T07:47:09;17.90;;;4.90;;
26435;SDS011;15351;52.408;16.826;2023-02-01T07:49:58;16.70;;;5.20;;
26435;SDS011;15351;52.408;16.826;2023-02-01T07:52:28;20.20;;;5.40;;
26435;SDS011;15351;52.408;16.826;2023-02-01T07:54:55;19.00;;;5.20;;
26435;SDS011;15351;52.408;16.826;2023-02-01T07:57:22;17.10;;;5.00;;
26435;SDS011;15351;52.408;16.826;2023-02-01T07:59:55;18.00;;;5.00;;
26435;SDS011;15351;52.408;16.826;2023-02-01T08:03:05;16.40;;;5.10;;
26435;SDS011;15351;52.408;16.826;2023-02-01T08:05:43;18.40;;;5.20;;
26435;SDS011;15351;52.408;16.826;2023-02-01T08:08:31;17.70;;;5.50;;
26435;SDS011;15351;52.408;16.826;2023-02-01T08:10:59;16.50;;;5.40;;
26435;SDS011;15351;52.408;16.826;2023-02-01T08:13:28;20.20;;;5.20;;
26435;SDS011;15351;52.408;16.826;2023-02-01T08:16:01;15.50;;;4.30;;
26435;SDS011;15351;52.408;16.826;2023-02-01T08:18:34;18.80;;;5.70;;
26435;SDS011;15351;52.408;16.826;2023-02-01T08:21:15;22.50;;;5.60;;
26435;SDS011;15351;52.408;16.826;2023-02-01T08:23:50;20.10;;;5.00;;
26435;SDS011;15351;52.408;16.826;2023-02-01T08:26:25;18.20;;;4.50;;
26435;SDS011;15351;52.408;16.826;2023-02-01T08:28:58;17.80;;;4.40;;
26435;SDS011;15351;52.408;16.826;2023-02-01T08:31:30;19.20;;;5.60;;
26435;SDS011;15351;52.408;16.826;2023-02-01T08:34:00;18.70;;;5.80;;
26435;SDS011;15351;52.408;16.826;2023-02-01T08:36:36;16.90;;;5.10;;
26435;SDS011;15351;52.408;16.826;2023-02-01T08:39:05;19.10;;;5.50;;
26435;SDS011;15351;52.408;16.826;2023-02-01T08:41:36;15.50;;;5.10;;
26435;SDS011;15351;52.408;16.826;2023-02-01T08:44:32;18.80;;;5.70;;
26435;SDS011;15351;52.408;16.826;2023-02-01T08:46:59;19.20;;;5.70;;
26435;SDS011;15351;52.408;16.826;2023-02-01T08:49:27;17.30;;;5.40;;
26435;SDS011;15351;52.408;16.826;2023-02-01T08:51:55;19.80;;;5.30;;
26435;SDS011;15351;52.408;16.826;2023-02-01T08:54:22;20.60;;;6.30;;
26435;SDS011;15351;52.408;16.826;2023-02-01T08:56:50;22.40;;;6.50;;
26435;SDS011;15351;52.408;16.826;2023-02-01T08:59:23;20.80;;;6.40;;
26435;SDS011;15351;52.408;16.826;2023-02-01T09:02:12;23.90;;;7.80;;
26435;SDS011;15351;52.408;16.826;2023-02-01T09:05:20;25.80;;;6.70;;
26435;SDS011;15351;52.408;16.826;2023-02-01T09:07:56;23.40;;;6.50;;
26435;SDS011;15351;52.408;16.826;2023-02-01T09:10:32;14.90;;;4.50;;
26435;SDS011;15351;52.408;16.826;2023-02-01T09:13:33;15.00;;;4.60;;
26435;SDS011;15351;52.408;16.826;2023-02-01T09:16:39;15.20;;;4.60;;
26435;SDS011;15351;52.408;16.826;2023-02-01T09:19:06;14.30;;;4.90;;
26435;SDS011;15351;52.408;16.826;2023-02-01T09:21:48;15.40;;;5.00;;
26435;SDS011;15351;52.408;16.826;2023-02-01T09:24:57;13.10;;;5.00;;
26435;SDS011;15351;52.408;16.826;2023-02-01T09:27:25;16.80;;;5.20;;
26435;SDS011;15351;52.408;16.826;2023-02-01T09:29:53;14.90;;;5.00;;
26435;SDS011;15351;52.408;16.826;2023-02-01T09:32:20;11.90;;;4.80;;
26435;SDS011;15351;52.408;16.826;2023-02-01T09:34:51;11.20;;;4.30;;
26435;SDS011;15351;52.408;16.826;2023-02-01T09:37:19;14.00;;;4.80;;
26435;SDS011;15351;52.408;16.826;2023-02-01T09:39:47;14.30;;;4.40;;
26435;SDS011;15351;52.408;16.826;2023-02-01T09:47:28;14.90;;;5.90;;
26435;SDS011;15351;52.408;16.826;2023-02-01T09:50:00;10.80;;;5.10;;
26435;SDS011;15351;52.408;16.826;2023-02-01T09:52:32;13.20;;;4.90;;
26435;SDS011;15351;52.408;16.826;2023-02-01T09:55:09;11.20;;;4.90;;
26435;SDS011;15351;52.408;16.826;2023-02-01T09:58:07;12.40;;;5.10;;
26435;SDS011;15351;52.408;16.826;2023-02-01T10:00:47;13.20;;;5.70;;
26435;SDS011;15351;52.408;16.826;2023-02-01T10:03:21;14.00;;;5.50;;
26435;SDS011;15351;52.408;16.826;2023-02-01T10:09:11;13.70;;;5.10;;
26435;SDS011;15351;52.408;16.826;2023-02-01T10:12:00;15.20;;;5.20;;
26435;SDS011;15351;52.408;16.826;2023-02-01T10:20:27;12.90;;;4.70;;
26435;SDS011;15351;52.408;16.826;2023-02-01T10:23:12;13.30;;;5.50;;
26435;SDS011;15351;52.408;16.826;2023-02-01T10:26:24;15.00;;;6.30;;
26435;SDS011;15351;52.408;16.826;2023-02-01T10:29:20;13.10;;;5.70;;
26435;SDS011;15351;52.408;16.826;2023-02-01T10:32:17;14.50;;;5.30;;
26435;SDS011;15351;52.408;16.826;2023-02-01T10:35:02;13.10;;;4.70;;
26435;SDS011;15351;52.408;16.826;2023-02-01T10:38:05;12.30;;;5.20;;
26435;SDS011;15351;52.408;16.826;2023-02-01T10:41:01;12.50;;;5.20;;
26435;SDS011;15351;52.408;16.826;2023-02-01T10:43:36;13.80;;;5.30;;
26435;SDS011;15351;52.408;16.826;2023-02-01T10:46:04;14.20;;;5.70;;
26435;SDS011;15351;52.408;16.826;2023-02-01T10:48:34;9.90;;;4.80;;
26435;SDS011;15351;52.408;16.826;2023-02-01T10:51:33;13.60;;;5.60;;
26435;SDS011;15351;52.408;16.826;2023-02-01T10:54:18;13.20;;;5.20;;
26435;SDS011;15351;52.408;16.826;2023-02-01T10:56:58;10.60;;;4.70;;
26435;SDS011;15351;52.408;16.826;2023-02-01T11:02:30;10.30;;;4.90;;
26435;SDS011;15351;52.408;16.826;2023-02-01T11:05:05;10.60;;;4.60;;
26435;SDS011;15351;52.408;16.826;2023-02-01T11:07:46;9.00;;;4.40;;
26435;SDS011;15351;52.408;16.826;2023-02-01T11:10:39;10.40;;;5.40;;
26435;SDS011;15351;52.408;16.826;2023-02-01T11:17:24;12.50;;;6.30;;
26435;SDS011;15351;52.408;16.826;2023-02-01T11:26:44;8.90;;;4.70;;
26435;SDS011;15351;52.408;16.826;2023-02-01T11:29:12;10.20;;;5.10;;
26435;SDS011;15351;52.408;16.826;2023-02-01T11:31:44;10.70;;;5.20;;
26435;SDS011;15351;52.408;16.826;2023-02-01T11:34:49;11.20;;;5.40;;
26435;SDS011;15351;52.408;16.826;2023-02-01T11:37:41;10.30;;;4.50;;
26435;SDS011;15351;52.408;16.826;2023-02-01T11:42:55;11.00;;;5.90;;
26435;SDS011;15351;52.408;16.826;2023-02-01T11:45:55;13.80;;;6.00;;
26435;SDS011;15351;52.408;16.826;2023-02-01T11:48:32;14.40;;;6.60;;
26435;SDS011;15351;52.408;16.826;2023-02-01T11:54:15;14.50;;;7.00;;
26435;SDS011;15351;52.408;16.826;2023-02-01T12:06:55;10.40;;;5.10;;
26435;SDS011;15351;52.408;16.826;2023-02-01T12:15:46;7.90;;;4.00;;
26435;SDS011;15351;52.408;16.826;2023-02-01T12:27:12;7.30;;;3.40;;
26435;SDS011;15351;52.408;16.826;2023-02-01T12:30:18;7.80;;;2.90;;
26435;SDS011;15351;52.408;16.826;2023-02-01T12:36:03;6.40;;;3.00;;
26435;SDS011;15351;52.408;16.826;2023-02-01T12:44:27;5.90;;;2.80;;
26435;SDS011;15351;52.408;16.826;2023-02-01T12:47:49;6.00;;;3.00;;
26435;SDS011;15351;52.408;16.826;2023-02-01T12:50:28;6.80;;;3.00;;
26435;SDS011;15351;52.408;16.826;2023-02-01T12:59:44;7.00;;;3.00;;
26435;SDS011;15351;52.408;16.826;2023-02-01T13:05:55;5.70;;;2.60;;
26435;SDS011;15351;52.408;16.826;2023-02-01T13:08:22;5.70;;;2.80;;
26435;SDS011;15351;52.408;16.826;2023-02-01T13:10:58;6.00;;;2.80;;
26435;SDS011;15351;52.408;16.826;2023-02-01T13:14:05;7.00;;;3.00;;
26435;SDS011;15351;52.408;16.826;2023-02-01T13:17:10;6.20;;;3.10;;
26435;SDS011;15351;52.408;16.826;2023-02-01T13:20:05;6.10;;;2.80;;
26435;SDS011;15351;52.408;16.826;2023-02-01T13:23:13;7.30;;;3.10;;
26435;SDS011;15351;52.408;16.826;2023-02-01T13:25:48;7.80;;;3.10;;
26435;SDS011;15351;52.408;16.826;2023-02-01T13:37:16;9.00;;;4.20;;
26435;SDS011;15351;52.408;16.826;2023-02-01T13:42:52;11.70;;;4.40;;
26435;SDS011;15351;52.408;16.826;2023-02-01T13:45:50;9.10;;;4.10;;
26435;SDS011;15351;52.408;16.826;2023-02-01T13:48:57;10.80;;;4.00;;
26435;SDS011;15351;52.408;16.826;2023-02-01T13:51:42;7.10;;;3.50;;
26435;SDS011;15351;52.408;16.826;2023-02-01T13:54:32;11.40;;;3.80;;
26435;SDS011;15351;52.408;16.826;2023-02-01T13:57:06;9.20;;;3.40;;
26435;SDS011;15351;52.408;16.826;2023-02-01T14:03:55;9.60;;;3.10;;
26435;SDS011;15351;52.408;16.826;2023-02-01T14:07:15;8.70;;;3.00;;
26435;SDS011;15351;52.408;16.826;2023-02-01T14:10:45;9.60;;;3.20;;
26435;SDS011;15351;52.408;16.826;2023-02-01T14:13:13;7.00;;;2.90;;
26435;SDS011;15351;52.408;16.826;2023-02-01T14:16:16;8.30;;;3.00;;
26435;SDS011;15351;52.408;16.826;2023-02-01T14:21:30;9.80;;;3.40;;
26435;SDS011;15351;52.408;16.826;2023-02-01T14:32:21;9.70;;;3.70;;
26435;SDS011;15351;52.408;16.826;2023-02-01T14:34:56;9.90;;;4.30;;
26435;SDS011;15351;52.408;16.826;2023-02-01T14:37:30;15.00;;;5.20;;
26435;SDS011;15351;52.408;16.826;2023-02-01T14:40:03;11.90;;;4.00;;
26435;SDS011;15351;52.408;16.826;2023-02-01T14:42:55;11.30;;;4.60;;
26435;SDS011;15351;52.408;16.826;2023-02-01T14:51:17;9.40;;;3.90;;
26435;SDS011;15351;52.408;16.826;2023-02-01T14:54:07;11.70;;;4.30;;
26435;SDS011;15351;52.408;16.826;2023-02-01T14:56:54;10.60;;;3.80;;
26435;SDS011;15351;52.408;16.826;2023-02-01T15:00:07;13.40;;;4.60;;
26435;SDS011;15351;52.408;16.826;2023-02-01T15:06:04;10.10;;;4.30;;
26435;SDS011;15351;52.408;16.826;2023-02-01T15:09:17;9.20;;;3.90;;
26435;SDS011;15351;52.408;16.826;2023-02-01T15:12:04;11.60;;;4.60;;
26435;SDS011;15351;52.408;16.826;2023-02-01T15:14:48;12.00;;;4.30;;
26435;SDS011;15351;52.408;16.826;2023-02-01T15:17:53;11.00;;;4.80;;
26435;SDS011;15351;52.408;16.826;2023-02-01T15:20:28;9.80;;;4.10;;
26435;SDS011;15351;52.408;16.826;2023-02-01T15:23:02;13.70;;;4.70;;
26435;SDS011;15351;52.408;16.826;2023-02-01T15:25:48;10.60;;;4.70;;
26435;SDS011;15351;52.408;16.826;2023-02-01T15:28:27;13.50;;;5.60;;
26435;SDS011;15351;52.408;16.826;2023-02-01T15:31:00;13.50;;;5.80;;
26435;SDS011;15351;52.408;16.826;2023-02-01T15:33:37;10.20;;;4.70;;
26435;SDS011;15351;52.408;16.826;2023-02-01T15:36:10;11.50;;;4.90;;
26435;SDS011;15351;52.408;16.826;2023-02-01T15:42:30;12.60;;;5.30;;
26435;SDS011;15351;52.408;16.826;2023-02-01T15:45:00;9.40;;;4.80;;
26435;SDS011;15351;52.408;16.826;2023-02-01T15:47:32;11.50;;;5.30;;
26435;SDS011;15351;52.408;16.826;2023-02-01T15:50:31;13.70;;;5.80;;
26435;SDS011;15351;52.408;16.826;2023-02-01T15:53:34;9.70;;;4.70;;
26435;SDS011;15351;52.408;16.826;2023-02-01T15:56:36;9.50;;;4.40;;
26435;SDS011;15351;52.408;16.826;2023-02-01T15:59:17;9.60;;;4.40;;
26435;SDS011;15351;52.408;16.826;2023-02-01T16:01:57;11.10;;;4.30;;
26435;SDS011;15351;52.408;16.826;2023-02-01T16:05:38;12.90;;;6.70;;
26435;SDS011;15351;52.408;16.826;2023-02-01T16:08:30;15.20;;;7.30;;
26435;SDS011;15351;52.408;16.826;2023-02-01T16:11:46;10.60;;;5.20;;
26435;SDS011;15351;52.408;16.826;2023-02-01T16:14:25;11.20;;;5.50;;
26435;SDS011;15351;52.408;16.826;2023-02-01T16:16:55;11.90;;;5.60;;
26435;SDS011;15351;52.408;16.826;2023-02-01T16:19:25;10.60;;;5.90;;
26435;SDS011;15351;52.408;16.826;2023-02-01T16:21:56;12.30;;;5.90;;
26435;SDS011;15351;52.408;16.826;2023-02-01T16:24:26;12.10;;;4.90;;
26435;SDS011;15351;52.408;16.826;2023-02-01T16:26:53;9.10;;;4.50;;
26435;SDS011;15351;52.408;16.826;2023-02-01T16:29:33;10.50;;;5.30;;
26435;SDS011;15351;52.408;16.826;2023-02-01T16:32:03;14.30;;;6.50;;
26435;SDS011;15351;52.408;16.826;2023-02-01T16:34:54;16.10;;;7.70;;
26435;SDS011;15351;52.408;16.826;2023-02-01T16:37:29;14.70;;;7.50;;
26435;SDS011;15351;52.408;16.826;2023-02-01T16:40:08;13.50;;;6.80;;
26435;SDS011;15351;52.408;16.826;2023-02-01T16:42:42;10.80;;;5.90;;
26435;SDS011;15351;52.408;16.826;2023-02-01T16:45:11;12.10;;;6.20;;
26435;SDS011;15351;52.408;16.826;2023-02-01T16:47:40;14.30;;;6.90;;
26435;SDS011;15351;52.408;16.826;2023-02-01T16:50:17;15.60;;;8.10;;
26435;SDS011;15351;52.408;16.826;2023-02-01T16:52:51;17.80;;;9.30;;
26435;SDS011;15351;52.408;16.826;2023-02-01T16:55:20;20.30;;;10.30;;
26435;SDS011;15351;52.408;16.826;2023-02-01T16:57:54;20.00;;;10.20;;
26435;SDS011;15351;52.408;16.826;2023-02-01T17:00:32;20.60;;;10.40;;
26435;SDS011;15351;52.408;16.826;2023-02-01T17:03:06;24.40;;;15.30;;
26435;SDS011;15351;52.408;16.826;2023-02-01T17:05:35;22.00;;;11.70;;
26435;SDS011;15351;52.408;16.826;2023-02-01T17:08:07;29.20;;;18.40;;
26435;SDS011;15351;52.408;16.826;2023-02-01T17:10:39;24.30;;;13.90;;
26435;SDS011;15351;52.408;16.826;2023-02-01T17:13:10;21.50;;;12.90;;
26435;SDS011;15351;52.408;16.826;2023-02-01T17:16:03;21.10;;;12.10;;
26435;SDS011;15351;52.408;16.826;2023-02-01T17:18:38;23.40;;;13.70;;
26435;SDS011;15351;52.408;16.826;2023-02-01T17:21:27;15.60;;;8.90;;
26435;SDS011;15351;52.408;16.826;2023-02-01T17:24:14;13.50;;;7.30;;
26435;SDS011;15351;52.408;16.826;2023-02-01T17:27:08;10.70;;;5.70;;
26435;SDS011;15351;52.408;16.826;2023-02-01T17:29:37;11.00;;;5.10;;
26435;SDS011;15351;52.408;16.826;2023-02-01T17:32:19;10.70;;;4.50;;
26435;SDS011;15351;52.408;16.826;2023-02-01T17:35:20;9.50;;;4.40;;
26435;SDS011;15351;52.408;16.826;2023-02-01T17:37:53;10.00;;;4.60;;
26435;SDS011;15351;52.408;16.826;2023-02-01T17:40:20;8.50;;;4.20;;
26435;SDS011;15351;52.408;16.826;2023-02-01T17:42:48;9.80;;;4.90;;
26435;SDS011;15351;52.408;16.826;2023-02-01T17:45:18;10.70;;;5.60;;
26435;SDS011;15351;52.408;16.826;2023-02-01T17:47:56;8.60;;;4.20;;
26435;SDS011;15351;52.408;16.826;2023-02-01T17:50:27;8.00;;;3.90;;
26435;SDS011;15351;52.408;16.826;2023-02-01T17:52:57;9.00;;;3.90;;
26435;SDS011;15351;52.408;16.826;2023-02-01T17:55:31;8.40;;;4.50;;
26435;SDS011;15351;52.408;16.826;2023-02-01T17:58:04;9.30;;;4.90;;
26435;SDS011;15351;52.408;16.826;2023-02-01T18:00:43;9.50;;;4.70;;
26435;SDS011;15351;52.408;16.826;2023-02-01T18:03:21;9.50;;;5.30;;
26435;SDS011;15351;52.408;16.826;2023-02-01T18:05:55;10.10;;;5.80;;
26435;SDS011;15351;52.408;16.826;2023-02-01T18:08:43;13.90;;;7.30;;
26435;SDS011;15351;52.408;16.826;2023-02-01T18:11:14;18.70;;;9.70;;
26435;SDS011;15351;52.408;16.826;2023-02-01T18:13:52;18.70;;;10.80;;
26435;SDS011;15351;52.408;16.826;2023-02-01T18:16:37;19.50;;;9.20;;
26435;SDS011;15351;52.408;16.826;2023-02-01T18:19:11;15.80;;;8.50;;